createdAt,value
2018-05-11T00:01:03.418Z,14.53
2018-05-11T00:03:31.056Z,14.57
2018-05-11T00:05:58.949Z,14.70
2018-05-11T00:08:26.598Z,14.80
2018-05-11T00:10:54.249Z,14.50
2018-05-11T00:13:21.915Z,15.33
2018-05-11T00:15:49.701Z,15.07
2018-05-11T00:18:17.365Z,13.80
2018-05-11T00:20:44.988Z,14.30
2018-05-11T00:23:12.651Z,13.90
2018-05-11T00:25:40.382Z,13.70
2018-05-11T00:28:08.113Z,14.13
2018-05-11T00:30:35.981Z,13.80
2018-05-11T00:33:03.848Z,13.77
2018-05-11T00:35:31.522Z,13.33
2018-05-11T00:37:59.380Z,13.60
2018-05-11T00:40:27.142Z,13.73
2018-05-11T00:42:54.780Z,13.80
2018-05-11T00:45:22.454Z,13.27
2018-05-11T00:47:50.072Z,13.23
2018-05-11T00:50:18.480Z,12.70
2018-05-11T00:52:46.130Z,12.43
2018-05-11T00:55:26.473Z,13.20
2018-05-11T00:57:54.867Z,13.10
2018-05-11T01:00:23.435Z,12.73
2018-05-11T01:02:52.084Z,13.43
2018-05-11T01:05:19.896Z,13.80
2018-05-11T01:07:48.359Z,13.07
2018-05-11T01:10:16.149Z,13.03
2018-05-11T01:12:43.800Z,12.60
2018-05-11T01:15:12.373Z,12.93
2018-05-11T01:17:41.042Z,11.90
2018-05-11T01:20:08.719Z,12.27
2018-05-11T01:22:36.557Z,11.43
2018-05-11T01:25:04.183Z,12.47
2018-05-11T01:27:32.014Z,11.73
2018-05-11T01:29:59.640Z,11.63
2018-05-11T01:32:27.247Z,11.70
2018-05-11T01:34:55.892Z,11.30
2018-05-11T01:37:23.659Z,11.10
2018-05-11T01:39:51.337Z,11.97
2018-05-11T01:42:19.184Z,11.63
2018-05-11T01:44:46.848Z,11.13
2018-05-11T01:47:14.482Z,11.10
2018-05-11T01:49:42.280Z,11.03
2018-05-11T01:52:09.969Z,12.00
2018-05-11T01:54:37.805Z,11.00
2018-05-11T01:57:05.570Z,11.70
2018-05-11T01:59:33.189Z,11.90
2018-05-11T02:02:01.621Z,10.90
2018-05-11T02:04:29.268Z,11.00
2018-05-11T02:06:57.069Z,11.57
2018-05-11T02:09:24.907Z,11.33
2018-05-11T02:11:52.636Z,10.77
2018-05-11T02:14:20.435Z,10.83
2018-05-11T02:16:48.301Z,10.93
2018-05-11T02:19:16.818Z,11.33
2018-05-11T02:21:45.277Z,11.17
2018-05-11T02:24:12.900Z,10.10
2018-05-11T02:26:40.532Z,10.80
2018-05-11T02:29:09.073Z,10.33
2018-05-11T02:31:36.723Z,10.50
2018-05-11T02:34:04.425Z,9.57
2018-05-11T02:36:32.124Z,10.17
2018-05-11T02:38:59.953Z,10.10
2018-05-11T02:41:28.334Z,9.47
2018-05-11T02:43:56.099Z,9.63
2018-05-11T02:46:23.832Z,9.13
2018-05-11T02:48:51.450Z,10.07
2018-05-11T02:51:20.007Z,9.97
2018-05-11T02:53:48.486Z,9.87
2018-05-11T02:56:16.222Z,9.60
2018-05-11T02:58:43.911Z,9.87
2018-05-11T03:01:12.380Z,9.60
2018-05-11T03:03:40.062Z,10.03
2018-05-11T03:06:07.851Z,9.67
2018-05-11T03:08:36.307Z,9.97
2018-05-11T03:11:04.071Z,9.77
2018-05-11T03:13:31.728Z,10.33
2018-05-11T03:15:59.389Z,10.07
2018-05-11T03:18:27.194Z,9.70
2018-05-11T03:20:55.100Z,10.07
2018-05-11T03:23:22.793Z,9.80
2018-05-11T03:25:50.528Z,9.57
2018-05-11T03:28:18.201Z,10.03
2018-05-11T03:30:46.059Z,9.33
2018-05-11T03:33:13.820Z,8.93
2018-05-11T03:35:41.593Z,9.10
2018-05-11T03:38:09.324Z,9.10
2018-05-11T03:40:37.115Z,9.47
2018-05-11T03:43:04.797Z,9.40
2018-05-11T03:45:32.448Z,8.83
2018-05-11T03:48:00.138Z,9.50
2018-05-11T03:50:27.804Z,9.17
2018-05-11T03:52:55.476Z,9.40
2018-05-11T03:55:24.044Z,9.53
2018-05-11T03:57:51.696Z,9.93
2018-05-11T04:00:20.834Z,9.97
2018-05-11T04:03:00.449Z,9.87
2018-05-11T04:05:39.998Z,10.27
2018-05-11T04:08:20.246Z,10.87
2018-05-11T04:10:48.897Z,11.20
2018-05-11T04:13:16.744Z,11.03
2018-05-11T04:15:44.529Z,10.83
2018-05-11T04:18:12.149Z,11.93
2018-05-11T04:20:40.663Z,12.03
2018-05-11T04:23:09.156Z,11.67
2018-05-11T04:25:36.921Z,11.87
2018-05-11T04:28:04.592Z,11.73
2018-05-11T04:30:32.232Z,11.77
2018-05-11T04:33:00.014Z,12.80
2018-05-11T04:35:27.643Z,12.23
2018-05-11T04:37:55.436Z,12.67
2018-05-11T04:40:23.205Z,12.57
2018-05-11T04:42:51.074Z,12.40
2018-05-11T04:45:18.712Z,12.03
2018-05-11T04:47:46.532Z,12.43
2018-05-11T04:50:14.925Z,11.80
2018-05-11T04:52:43.340Z,12.70
2018-05-11T04:55:10.969Z,12.43
2018-05-11T04:57:39.397Z,13.63
2018-05-11T05:00:07.164Z,12.20
2018-05-11T05:02:34.981Z,13.40
2018-05-11T05:05:03.616Z,13.47
2018-05-11T05:07:31.236Z,13.03
2018-05-11T05:09:59.860Z,13.10
2018-05-11T05:12:27.485Z,13.33
2018-05-11T05:14:55.288Z,12.97
2018-05-11T05:17:22.981Z,12.27
2018-05-11T05:19:50.735Z,12.10
2018-05-11T05:22:18.377Z,12.90
2018-05-11T05:24:46.074Z,12.70
2018-05-11T05:27:13.735Z,12.30
2018-05-11T05:29:41.574Z,11.10
2018-05-11T05:32:09.237Z,11.40
2018-05-11T05:34:36.851Z,11.57
2018-05-11T05:37:04.558Z,11.73
2018-05-11T05:39:32.183Z,10.50
2018-05-11T05:41:59.898Z,11.13
2018-05-11T05:44:27.525Z,10.33
2018-05-11T05:46:55.412Z,11.07
2018-05-11T05:49:23.211Z,10.30
2018-05-11T05:51:51.042Z,11.10
2018-05-11T05:54:18.723Z,10.33
2018-05-11T05:56:46.370Z,9.80
2018-05-11T05:59:14.237Z,10.80
2018-05-11T06:01:42.035Z,11.17
2018-05-11T06:04:10.881Z,11.47
2018-05-11T06:06:39.330Z,11.27
2018-05-11T06:09:07.146Z,11.20
2018-05-11T06:11:34.822Z,11.33
2018-05-11T06:14:02.458Z,10.37
2018-05-11T06:16:30.124Z,9.73
2018-05-11T06:18:57.889Z,10.17
2018-05-11T06:21:25.685Z,10.97
2018-05-11T06:23:53.320Z,10.30
2018-05-11T06:26:20.983Z,11.10
2018-05-11T06:28:48.743Z,11.87
2018-05-11T06:31:16.436Z,11.03
2018-05-11T06:33:44.273Z,11.40
2018-05-11T06:36:11.889Z,11.47
2018-05-11T06:38:40.312Z,11.73
2018-05-11T06:41:07.925Z,11.33
2018-05-11T06:43:36.492Z,11.77
2018-05-11T06:46:05.280Z,11.43
2018-05-11T06:48:33.239Z,11.10
2018-05-11T06:51:01.087Z,10.93
2018-05-11T06:53:28.884Z,11.03
2018-05-11T06:55:57.435Z,11.00
2018-05-11T06:58:25.080Z,11.40
2018-05-11T07:00:52.696Z,10.60
2018-05-11T07:03:20.522Z,8.70
2018-05-11T07:05:48.131Z,8.80
2018-05-11T07:08:16.505Z,7.80
2018-05-11T07:10:45.052Z,7.80
2018-05-11T07:13:13.639Z,6.67
2018-05-11T07:15:41.308Z,8.57
2018-05-11T07:18:08.943Z,9.30
2018-05-11T07:20:36.596Z,8.20
2018-05-11T07:23:04.311Z,9.30
2018-05-11T07:25:32.153Z,8.93
2018-05-11T07:27:59.818Z,8.90
2018-05-11T07:30:29.151Z,8.57
2018-05-11T07:32:57.726Z,8.33
2018-05-11T07:35:25.412Z,9.30
2018-05-11T07:37:53.837Z,9.03
2018-05-11T07:40:21.510Z,8.20
2018-05-11T07:42:49.268Z,8.57
2018-05-11T07:45:17.035Z,8.40
2018-05-11T07:47:44.894Z,9.10
2018-05-11T07:50:12.513Z,8.93
2018-05-11T07:52:40.921Z,8.70
2018-05-11T07:55:08.641Z,9.70
2018-05-11T07:57:36.369Z,8.90
2018-05-11T08:00:04.076Z,8.70
2018-05-11T08:02:32.512Z,9.47
2018-05-11T08:05:00.169Z,9.30
2018-05-11T08:07:27.861Z,9.80
2018-05-11T08:09:56.428Z,9.60
2018-05-11T08:12:24.170Z,9.20
2018-05-11T08:14:51.881Z,10.20
2018-05-11T08:17:20.427Z,9.90
2018-05-11T08:19:48.164Z,8.93
2018-05-11T08:22:15.812Z,8.63
2018-05-11T08:24:44.188Z,9.03
2018-05-11T08:27:12.628Z,9.07
2018-05-11T08:29:40.379Z,8.60
2018-05-11T08:32:08.032Z,8.83
2018-05-11T08:34:35.805Z,8.20
2018-05-11T08:37:03.505Z,8.97
2018-05-11T08:39:32.053Z,7.57
2018-05-11T08:41:59.752Z,8.60
2018-05-11T08:44:27.513Z,8.00
2018-05-11T08:46:55.964Z,8.57
2018-05-11T08:49:23.740Z,8.07
2018-05-11T08:51:51.481Z,7.93
2018-05-11T08:54:19.186Z,7.87
2018-05-11T08:56:48.381Z,8.17
2018-05-11T08:59:17.660Z,7.80
2018-05-11T09:01:45.420Z,7.93
2018-05-11T09:04:13.288Z,8.83
2018-05-11T09:06:40.971Z,8.93
2018-05-11T09:09:08.636Z,9.17
2018-05-11T09:11:36.294Z,8.90
2018-05-11T09:14:03.920Z,8.57
2018-05-11T09:16:31.598Z,8.30
2018-05-11T09:18:59.283Z,8.20
2018-05-11T09:21:27.064Z,8.10
2018-05-11T09:23:54.727Z,8.40
2018-05-11T09:26:22.454Z,8.00
2018-05-11T09:28:50.320Z,8.13
2018-05-11T09:31:18.188Z,7.33
2018-05-11T09:33:45.952Z,7.20
2018-05-11T09:36:13.649Z,7.60
2018-05-11T09:38:41.379Z,9.30
2018-05-11T09:41:09.078Z,8.47
2018-05-11T09:43:37.557Z,7.90
2018-05-11T09:46:06.211Z,8.80
2018-05-11T09:48:33.869Z,8.10
2018-05-11T09:51:01.516Z,7.47
2018-05-11T09:53:29.230Z,8.87
2018-05-11T09:55:57.822Z,7.43
2018-05-11T09:58:26.220Z,9.63
2018-05-11T10:00:54.752Z,8.10
2018-05-11T10:03:23.869Z,8.37
2018-05-11T10:05:51.488Z,8.30
2018-05-11T10:08:19.140Z,8.27
2018-05-11T10:10:46.806Z,7.80
2018-05-11T10:13:14.431Z,8.47
2018-05-11T10:15:42.881Z,9.07
2018-05-11T10:18:10.661Z,8.33
2018-05-11T10:20:38.310Z,8.00
2018-05-11T10:23:06.164Z,7.77
2018-05-11T10:25:34.031Z,7.50
2018-05-11T10:28:01.896Z,8.47
2018-05-11T10:30:29.562Z,7.40
2018-05-11T10:32:57.426Z,8.33
2018-05-11T10:35:25.118Z,8.30
2018-05-11T10:37:52.958Z,7.73
2018-05-11T10:40:20.568Z,8.60
2018-05-11T10:42:48.960Z,7.50
2018-05-11T10:45:16.619Z,7.60
2018-05-11T10:47:44.997Z,8.73
2018-05-11T10:50:13.360Z,7.57
2018-05-11T10:52:41.777Z,8.27
2018-05-11T10:55:09.491Z,9.73
2018-05-11T10:57:37.114Z,8.03
2018-05-11T11:00:04.886Z,9.03
2018-05-11T11:02:32.654Z,8.93
2018-05-11T11:05:00.381Z,9.40
2018-05-11T11:07:28.071Z,9.77
2018-05-11T11:09:55.944Z,9.73
2018-05-11T11:12:23.599Z,8.83
2018-05-11T11:14:51.271Z,9.90
2018-05-11T11:17:19.034Z,10.50
2018-05-11T11:19:46.653Z,9.07
2018-05-11T11:22:15.118Z,9.67
2018-05-11T11:24:43.589Z,8.77
2018-05-11T11:27:12.054Z,10.07
2018-05-11T11:29:39.917Z,11.47
2018-05-11T11:32:07.544Z,11.60
2018-05-11T11:34:35.389Z,11.40
2018-05-11T11:37:03.848Z,10.67
2018-05-11T11:39:33.013Z,12.30
2018-05-11T11:42:00.949Z,12.47
2018-05-11T11:44:29.375Z,12.33
2018-05-11T11:46:57.128Z,11.53
2018-05-11T11:49:24.779Z,12.07
2018-05-11T11:51:52.455Z,12.47
2018-05-11T11:54:20.092Z,11.53
2018-05-11T11:56:47.766Z,11.47
2018-05-11T11:59:15.476Z,10.20
2018-05-11T12:01:43.883Z,10.83
2018-05-11T12:04:11.693Z,11.10
2018-05-11T12:06:39.377Z,10.90
2018-05-11T12:09:07.143Z,11.47
2018-05-11T12:11:34.978Z,10.90
2018-05-11T12:14:02.850Z,10.63
2018-05-11T12:16:30.612Z,9.77
2018-05-11T12:18:58.377Z,9.97
2018-05-11T12:21:26.006Z,10.70
2018-05-11T12:23:53.616Z,10.50
2018-05-11T12:26:21.328Z,9.50
2018-05-11T12:28:49.769Z,9.73
2018-05-11T12:31:18.320Z,10.07
2018-05-11T12:33:46.015Z,9.73
2018-05-11T12:36:13.780Z,9.37
2018-05-11T12:38:41.445Z,9.93
2018-05-11T12:41:09.119Z,10.00
2018-05-11T12:43:37.524Z,9.33
2018-05-11T12:46:05.330Z,9.87
2018-05-11T12:48:33.089Z,8.90
2018-05-11T12:51:00.707Z,9.50
2018-05-11T12:53:29.156Z,10.27
2018-05-11T12:55:56.895Z,10.57
2018-05-11T12:58:24.661Z,8.97
2018-05-11T13:00:52.529Z,9.67
2018-05-11T13:03:20.157Z,8.97
2018-05-11T13:05:48.569Z,9.60
2018-05-11T13:08:16.364Z,10.53
2018-05-11T13:10:44.101Z,10.53
2018-05-11T13:13:11.966Z,9.50
2018-05-11T13:15:39.610Z,10.80
2018-05-11T13:18:07.256Z,11.40
2018-05-11T13:20:34.967Z,10.67
2018-05-11T13:23:02.564Z,10.50
2018-05-11T13:25:30.951Z,10.87
2018-05-11T13:27:59.372Z,9.70
2018-05-11T13:30:27.070Z,10.90
2018-05-11T13:32:54.695Z,11.03
2018-05-11T13:35:22.343Z,10.70
2018-05-11T13:37:50.088Z,11.27
2018-05-11T13:40:17.840Z,10.87
2018-05-11T13:42:45.532Z,9.93
2018-05-11T13:45:13.247Z,10.43
2018-05-11T13:47:41.831Z,10.73
2018-05-11T13:50:09.570Z,10.73
2018-05-11T13:52:37.285Z,10.43
2018-05-11T13:55:06.714Z,11.40
2018-05-11T13:57:34.375Z,10.30
2018-05-11T14:00:02.092Z,11.60
2018-05-11T14:02:29.737Z,11.07
2018-05-11T14:04:57.591Z,10.80
2018-05-11T14:07:25.261Z,11.03
2018-05-11T14:09:53.770Z,11.20
2018-05-11T14:12:22.522Z,11.47
2018-05-11T14:14:50.925Z,10.43
2018-05-11T14:17:18.691Z,11.40
2018-05-11T14:19:46.365Z,11.07
2018-05-11T14:22:14.091Z,10.57
2018-05-11T14:24:41.751Z,10.60
2018-05-11T14:27:09.625Z,10.37
2018-05-11T14:29:37.382Z,11.00
2018-05-11T14:32:05.903Z,11.33
2018-05-11T14:34:35.117Z,11.30
2018-05-11T14:37:03.546Z,10.83
2018-05-11T14:39:31.209Z,11.20
2018-05-11T14:41:59.824Z,11.47
2018-05-11T14:44:27.545Z,10.40
2018-05-11T14:46:55.222Z,10.87
2018-05-11T14:49:22.914Z,10.80
2018-05-11T14:51:50.603Z,11.83
2018-05-11T14:54:19.250Z,11.37
2018-05-11T14:56:47.029Z,11.50
2018-05-11T14:59:15.436Z,11.20
2018-05-11T15:01:44.624Z,11.07
2018-05-11T15:04:13.131Z,10.53
2018-05-11T15:06:41.681Z,10.13
2018-05-11T15:09:10.073Z,11.00
2018-05-11T15:11:38.709Z,11.00
2018-05-11T15:14:06.509Z,10.83
2018-05-11T15:16:34.145Z,11.20
2018-05-11T15:19:02.821Z,10.70
2018-05-11T15:21:30.587Z,11.93
2018-05-11T15:26:32.261Z,11.43
2018-05-11T15:29:00.024Z,12.07
2018-05-11T15:31:27.719Z,12.03
2018-05-11T15:33:55.342Z,11.73
2018-05-11T15:36:22.993Z,11.20
2018-05-11T15:38:50.605Z,11.03
2018-05-11T15:41:18.264Z,10.80
2018-05-11T15:43:45.926Z,12.87
2018-05-11T15:46:13.557Z,11.77
2018-05-11T15:48:41.199Z,11.97
2018-05-11T15:51:08.983Z,10.97
2018-05-11T15:53:36.646Z,12.23
2018-05-11T15:56:04.303Z,12.40
2018-05-11T15:58:31.969Z,12.10
2018-05-11T16:00:59.660Z,10.50
2018-05-11T16:03:27.401Z,12.93
2018-05-11T16:05:55.119Z,12.83
2018-05-11T16:08:23.585Z,14.23
2018-05-11T16:10:52.015Z,13.07
2018-05-11T16:13:19.634Z,12.67
2018-05-11T16:15:48.093Z,12.83
2018-05-11T16:18:15.829Z,11.73
2018-05-11T16:20:43.448Z,12.80
2018-05-11T16:23:11.870Z,12.47
2018-05-11T16:25:39.741Z,12.80
2018-05-11T16:28:07.514Z,12.50
2018-05-11T16:30:35.268Z,12.80
2018-05-11T16:33:03.068Z,13.20
2018-05-11T16:35:30.812Z,12.77
2018-05-11T16:37:58.437Z,12.80
2018-05-11T16:40:26.157Z,12.90
2018-05-11T16:42:53.745Z,13.30
2018-05-11T16:45:22.193Z,12.37
2018-05-11T16:47:49.848Z,13.77
2018-05-11T16:50:17.459Z,12.43
2018-05-11T16:52:45.139Z,13.23
2018-05-11T16:55:12.841Z,13.27
2018-05-11T16:57:40.573Z,12.83
2018-05-11T17:00:08.343Z,12.53
2018-05-11T17:02:35.968Z,11.97
2018-05-11T17:05:04.591Z,13.20
2018-05-11T17:07:32.284Z,12.90
2018-05-11T17:09:59.958Z,12.70
2018-05-11T17:12:28.498Z,12.57
2018-05-11T17:14:56.115Z,11.47
2018-05-11T17:17:24.648Z,12.50
2018-05-11T17:19:52.462Z,13.60
2018-05-11T17:22:21.010Z,12.50
2018-05-11T17:24:48.623Z,11.53
2018-05-11T17:27:16.278Z,11.10
2018-05-11T17:29:44.116Z,11.37
2018-05-11T17:32:11.875Z,10.97
2018-05-11T17:34:39.593Z,11.03
2018-05-11T17:37:07.216Z,10.07
2018-05-11T17:39:35.654Z,10.17
2018-05-11T17:42:03.418Z,10.87
2018-05-11T17:44:31.038Z,10.90
2018-05-11T17:46:59.466Z,10.23
2018-05-11T17:49:27.225Z,9.60
2018-05-11T17:51:54.905Z,9.77
2018-05-11T17:54:22.686Z,10.40
2018-05-11T17:56:50.421Z,10.63
2018-05-11T17:59:18.180Z,10.33
2018-05-11T18:01:45.869Z,9.97
2018-05-11T18:04:13.545Z,9.70
2018-05-11T18:06:42.515Z,9.93
2018-05-11T18:09:10.393Z,10.17
2018-05-11T18:11:38.107Z,10.07
2018-05-11T18:14:06.625Z,10.67
2018-05-11T18:16:34.324Z,10.20
2018-05-11T18:19:02.769Z,9.10
2018-05-11T18:21:30.630Z,9.57
2018-05-11T18:23:58.254Z,10.03
2018-05-11T18:26:25.926Z,9.73
2018-05-11T18:28:53.577Z,10.20
2018-05-11T18:31:21.248Z,9.70
2018-05-11T18:33:48.909Z,9.53
2018-05-11T18:36:16.600Z,8.97
2018-05-11T18:38:44.241Z,8.87
2018-05-11T18:41:11.952Z,8.47
2018-05-11T18:43:40.380Z,10.30
2018-05-11T18:46:08.032Z,9.50
2018-05-11T18:48:36.478Z,8.73
2018-05-11T18:51:04.163Z,9.50
2018-05-11T18:53:33.026Z,9.13
2018-05-11T18:56:00.493Z,9.67
2018-05-11T18:58:28.254Z,9.03
2018-05-11T19:00:56.808Z,9.80
2018-05-11T19:03:24.674Z,10.13
2018-05-11T19:05:52.321Z,10.03
2018-05-11T19:08:20.085Z,9.33
2018-05-11T19:10:47.753Z,10.33
2018-05-11T19:13:15.402Z,10.33
2018-05-11T19:15:43.193Z,10.17
2018-05-11T19:18:11.068Z,11.43
2018-05-11T19:20:38.825Z,10.10
2018-05-11T19:23:06.514Z,11.30
2018-05-11T19:25:34.139Z,11.40
2018-05-11T19:28:01.954Z,11.47
2018-05-11T19:30:30.373Z,12.03
2018-05-11T19:32:58.031Z,11.27
2018-05-11T19:35:25.641Z,11.63
2018-05-11T19:37:53.485Z,12.80
2018-05-11T19:40:21.209Z,12.23
2018-05-11T19:42:48.909Z,11.57
2018-05-11T19:45:16.686Z,11.80
2018-05-11T19:47:44.836Z,12.57
2018-05-11T19:50:12.924Z,12.30
2018-05-11T19:52:40.892Z,12.80
2018-05-11T19:55:08.919Z,13.40
2018-05-11T19:57:36.875Z,13.87
2018-05-11T20:00:05.685Z,13.10
2018-05-11T20:02:33.623Z,13.77
2018-05-11T20:05:02.731Z,14.23
2018-05-11T20:07:31.266Z,13.97
2018-05-11T20:09:59.356Z,13.27
2018-05-11T20:12:27.364Z,15.13
2018-05-11T20:14:56.145Z,14.67
2018-05-11T20:17:24.071Z,14.20
2018-05-11T20:19:52.284Z,14.57
2018-05-11T20:22:20.379Z,15.63
2018-05-11T20:24:48.351Z,15.87
2018-05-11T20:27:16.804Z,15.87
2018-05-11T20:29:44.532Z,15.20
2018-05-11T20:32:12.399Z,16.23
2018-05-11T20:34:40.062Z,14.67
2018-05-11T20:37:07.824Z,14.80
2018-05-11T20:39:35.578Z,16.00
2018-05-11T20:42:03.209Z,16.37
2018-05-11T20:44:31.611Z,16.37
2018-05-11T20:46:59.330Z,15.37
2018-05-11T20:49:27.810Z,15.50
2018-05-11T20:51:55.472Z,16.60
2018-05-11T20:54:23.727Z,15.17
2018-05-11T20:56:51.419Z,16.10
2018-05-11T20:59:19.832Z,16.13
2018-05-11T21:01:47.505Z,16.33
2018-05-11T21:04:15.238Z,15.70
2018-05-11T21:06:43.869Z,16.20
2018-05-11T21:09:11.540Z,16.93
2018-05-11T21:11:39.301Z,16.60
2018-05-11T21:14:07.164Z,16.47
2018-05-11T21:16:34.820Z,17.53
2018-05-11T21:19:02.525Z,17.80
2018-05-11T21:21:31.007Z,17.67
2018-05-11T21:23:59.488Z,17.47
2018-05-11T21:26:27.889Z,17.40
2018-05-11T21:28:56.342Z,18.20
2018-05-11T21:31:24.111Z,19.03
2018-05-11T21:33:51.804Z,17.50
2018-05-11T21:36:20.184Z,17.70
2018-05-11T21:38:48.703Z,18.03
2018-05-11T21:41:16.406Z,18.23
2018-05-11T21:43:44.846Z,17.57
2018-05-11T21:46:12.498Z,17.70
2018-05-11T21:48:40.264Z,18.10
2018-05-11T21:51:08.075Z,18.63
2018-05-11T21:53:36.555Z,18.77
2018-05-11T21:56:04.235Z,19.90
2018-05-11T21:58:32.665Z,18.97
2018-05-11T22:01:00.309Z,19.77
2018-05-11T22:03:27.952Z,19.03
2018-05-11T22:05:55.658Z,17.50
2018-05-11T22:08:23.363Z,19.00
2018-05-11T22:10:51.751Z,18.50
2018-05-11T22:13:20.139Z,18.80
2018-05-11T22:15:48.693Z,18.17
2018-05-11T22:18:17.345Z,18.57
2018-05-11T22:20:45.011Z,18.53
2018-05-11T22:23:12.873Z,19.07
2018-05-11T22:25:40.569Z,18.70
2018-05-11T22:28:08.229Z,18.87
2018-05-11T22:30:35.886Z,18.53
2018-05-11T22:33:03.496Z,17.50
2018-05-11T22:35:31.388Z,17.73
2018-05-11T22:37:59.160Z,17.60
2018-05-11T22:40:26.918Z,17.40
2018-05-11T22:42:54.700Z,18.87
2018-05-11T22:45:22.485Z,19.03
2018-05-11T22:47:50.108Z,19.53
2018-05-11T22:50:17.756Z,19.33
2018-05-11T22:52:45.464Z,19.40
2018-05-11T22:55:13.111Z,18.27
2018-05-11T22:57:40.964Z,18.90
2018-05-11T23:00:08.729Z,19.47
2018-05-11T23:02:36.397Z,18.53
2018-05-11T23:05:04.090Z,18.73
2018-05-11T23:07:31.719Z,19.13
2018-05-11T23:09:59.487Z,18.97
2018-05-11T23:12:27.141Z,20.30
2018-05-11T23:14:54.908Z,19.10
2018-05-11T23:17:22.775Z,19.97
2018-05-11T23:19:50.396Z,19.13
2018-05-11T23:22:18.919Z,19.20
2018-05-11T23:24:46.541Z,20.03
2018-05-11T23:27:15.065Z,19.93
2018-05-11T23:29:42.711Z,19.40
2018-05-11T23:32:10.361Z,19.47
2018-05-11T23:34:38.259Z,19.13
2018-05-11T23:37:06.020Z,19.00
2018-05-11T23:39:33.647Z,19.23
2018-05-11T23:42:02.206Z,18.77
2018-05-11T23:44:29.867Z,19.17
2018-05-11T23:46:58.413Z,19.40
2018-05-11T23:49:26.179Z,18.50
2018-05-11T23:51:53.892Z,19.43
2018-05-11T23:54:22.278Z,18.73
2018-05-11T23:56:50.804Z,18.77
2018-05-11T23:59:18.493Z,19.40
